This is the latest recevied weather packets stored in our database for station/object IU1WWE-10. If no packets are shown the sender has not sent any weather packets the latest 10 day(s).
| Time | Temp. | Humidity | Pressure | Rain* | Wind** | Luminosity | Snow |
|---|---|---|---|---|---|---|---|
| 1787738470 | 21.11° C | 74% | 1020.7 hPa | 0 mm | - | - | - |
| 1787738168 | 21.11° C | 72% | 1020.7 hPa | 0 mm | - | - | - |
| 1787737865 | 21.11° C | 72% | 1020.8 hPa | 0 mm | - | - | - |
| 1787737564 | 21.11° C | 69% | 1021 hPa | 0 mm | - | - | - |
| 1787737261 | 21.67° C | 67% | 1020.9 hPa | 0 mm | - | - | - |
| 1787736959 | 21.67° C | 67% | 1020.9 hPa | 0 mm | - | - | - |
| 1787736657 | 21.67° C | 66% | 1020.9 hPa | 0 mm | - | - | - |
| 1787736355 | 22.22° C | 63% | 1020.9 hPa | 0 mm | - | - | - |
| 1787736053 | 22.22° C | 65% | 1020.8 hPa | 0 mm | - | - | - |
| 1787735751 | 22.22° C | 65% | 1020.7 hPa | 0 mm | - | - | - |
| 1787735449 | 21.67° C | 69% | 1020.6 hPa | 0 mm | - | - | - |
| 1787735147 | 21.67° C | 63% | 1020.7 hPa | 0 mm | - | - | - |
| 1787734845 | 21.67° C | 67% | 1020.5 hPa | 0 mm | - | - | - |
| 1787734543 | 21.11° C | 67% | 1020.7 hPa | 0 mm | - | - | - |
| 1787734241 | 21.11° C | 69% | 1020.7 hPa | 0 mm | - | - | - |
| 1787733939 | 20.56° C | 71% | 1020.6 hPa | 0 mm | - | - | - |
| 1787733636 | 20.56° C | 71% | 1020.7 hPa | 0 mm | - | - | - |
| 1787733335 | 20° C | 72% | 1020.7 hPa | 0 mm | - | - | - |
| 1787733033 | 19.44° C | 76% | 1020.9 hPa | 0 mm | - | - | - |
| 1787732730 | 19.44° C | 74% | 1020.9 hPa | 0 mm | - | - | - |
| 1787732428 | 18.33° C | 80% | 1021.1 hPa | 0 mm | - | - | - |
| 1787732126 | 18.33° C | 82% | 1021 hPa | 0 mm | - | - | - |
| 1787731824 | 17.78° C | 82% | 1021.1 hPa | 0 mm | - | - | - |
| 1787731522 | 17.22° C | 85% | 1021.2 hPa | 0 mm | - | - | - |
| 1787731220 | 17.22° C | 88% | 1021 hPa | 0 mm | - | - | - |
* Rain since midnight (hover to see other rain measurements)
** Current wind speed in m/s (hover to see current wind gust speed)